createdAt,value
2022-12-19T00:01:16.663Z,101649.78
2022-12-19T00:06:20.523Z,101631.63
2022-12-19T00:11:24.355Z,101641.38
2022-12-19T00:16:27.014Z,101643.72
2022-12-19T00:21:30.901Z,101623.28
2022-12-19T00:26:39.777Z,101631.69
2022-12-19T00:31:40.595Z,101652.94
2022-12-19T00:36:42.901Z,101630.53
2022-12-19T00:41:43.791Z,101623.69
2022-12-19T00:46:51.053Z,101621.84
2022-12-19T00:51:57.366Z,101621.84
2022-12-19T00:56:58.203Z,101616.38
2022-12-19T01:01:59.079Z,101597.59
2022-12-19T01:07:03.117Z,101604.59
2022-12-19T01:12:25.195Z,101612.47
2022-12-19T01:17:28.728Z,101617.66
2022-12-19T01:22:30.866Z,101603.56
2022-12-19T01:27:31.632Z,101577.56
2022-12-19T01:32:32.427Z,101574.84
2022-12-19T01:37:36.308Z,101576.84
2022-12-19T01:42:38.263Z,101566.03
2022-12-19T01:47:48.668Z,101571.69
2022-12-19T01:52:55.146Z,101567.72
2022-12-19T01:57:58.057Z,101561.34
2022-12-19T02:03:05.077Z,101554.38
2022-12-19T02:08:09.710Z,101543.44
2022-12-19T02:13:12.148Z,101537.00
2022-12-19T02:18:21.696Z,101528.75
2022-12-19T02:23:48.001Z,101521.59
2022-12-19T02:29:06.969Z,101503.31
2022-12-19T02:34:17.620Z,101492.28
2022-12-19T02:39:35.234Z,101493.94
2022-12-19T02:44:41.113Z,101499.66
2022-12-19T02:49:43.446Z,101495.88
2022-12-19T02:54:45.116Z,101501.31
2022-12-19T02:59:59.691Z,101516.09
2022-12-19T03:05:15.346Z,101536.03
2022-12-19T03:10:25.743Z,101516.63
2022-12-19T03:15:28.233Z,101515.91
2022-12-19T03:20:48.998Z,101517.94
2022-12-19T03:25:54.573Z,101532.78
2022-12-19T03:30:56.336Z,101542.44
2022-12-19T03:36:04.961Z,101545.63
2022-12-19T03:41:08.499Z,101545.00
2022-12-19T03:46:15.272Z,101536.31
2022-12-19T03:51:28.864Z,101539.56
2022-12-19T03:56:38.466Z,101534.19
2022-12-19T04:01:41.605Z,101534.03
2022-12-19T04:06:46.137Z,101548.34
2022-12-19T04:11:52.619Z,101536.38
2022-12-19T04:17:00.055Z,101540.09
2022-12-19T04:22:10.838Z,101527.44
2022-12-19T04:27:15.260Z,101514.41
2022-12-19T04:32:16.332Z,101534.72
2022-12-19T04:37:18.868Z,101535.66
2022-12-19T04:42:19.799Z,101524.94
2022-12-19T04:47:20.723Z,101509.59
2022-12-19T04:52:22.839Z,101504.81
2022-12-19T04:57:23.635Z,101505.00
2022-12-19T05:02:24.749Z,101523.63
2022-12-19T05:07:27.044Z,101519.78
2022-12-19T05:12:29.878Z,101514.03
2022-12-19T05:17:30.702Z,101508.66
2022-12-19T05:22:32.877Z,101523.25
2022-12-19T05:27:33.744Z,101521.47
2022-12-19T05:32:34.874Z,101511.19
2022-12-19T05:37:37.004Z,101518.25
2022-12-19T05:42:37.789Z,101533.19
2022-12-19T05:47:38.654Z,101523.78
2022-12-19T05:52:40.951Z,101523.88
2022-12-19T05:57:41.741Z,101531.50
2022-12-19T06:02:42.655Z,101542.13
2022-12-19T06:07:44.844Z,101527.75
2022-12-19T06:12:45.635Z,101519.47
2022-12-19T06:17:46.434Z,101522.69
2022-12-19T06:22:48.563Z,101530.50
2022-12-19T06:27:49.319Z,101527.91
2022-12-19T06:32:50.175Z,101541.41
2022-12-19T06:37:55.316Z,101536.00
2022-12-19T06:42:58.673Z,101545.66
2022-12-19T06:47:59.533Z,101544.78
2022-12-19T06:53:02.125Z,101532.53
2022-12-19T06:58:06.152Z,101532.53
2022-12-19T07:03:12.431Z,101523.59
2022-12-19T07:08:14.669Z,101531.41
2022-12-19T07:13:15.702Z,101529.47
2022-12-19T07:18:16.759Z,101525.50
2022-12-19T07:23:21.429Z,101530.69
2022-12-19T07:28:22.447Z,101522.63
2022-12-19T07:33:24.098Z,101526.84
2022-12-19T07:38:26.248Z,101534.91
2022-12-19T07:43:27.458Z,101515.75
2022-12-19T07:48:29.515Z,101517.09
2022-12-19T07:53:37.443Z,101519.16
2022-12-19T07:58:38.780Z,101509.59
2022-12-19T08:03:39.734Z,101508.19
2022-12-19T08:08:42.203Z,101514.78
2022-12-19T08:13:46.428Z,101510.00
2022-12-19T08:18:47.895Z,101526.59
2022-12-19T08:23:50.731Z,101517.50
2022-12-19T08:28:51.968Z,101500.53
2022-12-19T08:33:54.028Z,101488.13
2022-12-19T08:38:56.190Z,101479.00
2022-12-19T08:43:57.382Z,101486.66
2022-12-19T08:48:58.191Z,101476.91
2022-12-19T08:54:00.524Z,101448.50
2022-12-19T08:59:02.499Z,101454.19
2022-12-19T09:06:00.037Z,101458.25
2022-12-19T09:09:25.477Z,101457.16
2022-12-19T09:14:26.251Z,101445.75
2022-12-19T09:19:27.151Z,101441.56
2022-12-19T09:24:29.653Z,101427.97
2022-12-19T09:29:35.068Z,101438.16
2022-12-19T09:34:38.407Z,101421.75
2022-12-19T09:39:41.286Z,101417.88
2022-12-19T09:45:00.792Z,101421.97
2022-12-19T09:50:03.253Z,101417.53
2022-12-19T09:55:24.920Z,101421.03
2022-12-19T10:00:27.599Z,101415.66
2022-12-19T10:06:22.322Z,101414.28
2022-12-19T10:12:39.584Z,101410.19
2022-12-19T10:17:26.743Z,101398.47
2022-12-19T10:22:34.067Z,101406.56
2022-12-19T10:27:59.578Z,101389.59
2022-12-19T10:33:20.237Z,101384.06
2022-12-19T10:38:27.906Z,101389.91
2022-12-19T10:43:44.746Z,101387.66
2022-12-19T10:48:45.893Z,101372.63
2022-12-19T10:53:55.086Z,101370.78
2022-12-19T10:58:58.955Z,101357.75
2022-12-19T11:04:29.404Z,101370.94
2022-12-19T11:09:32.985Z,101355.34
2022-12-19T11:19:18.772Z,101344.28
2022-12-19T11:29:29.802Z,101340.47
2022-12-19T11:30:46.253Z,101329.06
2022-12-19T11:31:51.387Z,101314.59
2022-12-19T11:36:26.121Z,101309.06
2022-12-19T11:41:33.443Z,101299.38
2022-12-19T11:46:44.245Z,101297.78
2022-12-19T11:51:53.555Z,101295.34
2022-12-19T11:56:54.569Z,101286.63
2022-12-19T12:02:34.085Z,101299.44
2022-12-19T12:09:00.258Z,101275.81
2022-12-19T12:22:11.976Z,101270.38
2022-12-19T12:31:16.752Z,101258.91
2022-12-19T12:31:54.110Z,101252.03
2022-12-19T12:31:56.045Z,101251.28
2022-12-19T12:41:05.934Z,101241.34
2022-12-19T12:46:13.562Z,101229.59
2022-12-19T12:51:15.749Z,101226.13
2022-12-19T12:56:19.901Z,101223.38
2022-12-19T13:01:32.648Z,101215.88
2022-12-19T13:06:35.395Z,101208.53
2022-12-19T13:11:58.935Z,101218.97
2022-12-19T13:16:59.852Z,101214.22
2022-12-19T13:22:34.065Z,101204.91
2022-12-19T13:27:49.385Z,101211.22
2022-12-19T13:33:11.831Z,101204.28
2022-12-19T13:40:02.078Z,101208.25
2022-12-19T13:43:51.761Z,101215.88
2022-12-19T13:48:57.242Z,101195.88
2022-12-19T13:54:00.060Z,101198.31
2022-12-19T13:59:06.351Z,101199.84
2022-12-19T14:04:10.757Z,101203.88
2022-12-19T14:11:26.307Z,101188.41
2022-12-19T14:15:13.261Z,101200.09
2022-12-19T14:22:01.820Z,101189.75
2022-12-19T14:28:15.500Z,101192.31
2022-12-19T14:31:11.930Z,101191.16
2022-12-19T14:36:18.672Z,101195.41
2022-12-19T14:42:01.803Z,101187.06
2022-12-19T14:53:52.228Z,101190.13
2022-12-19T14:54:45.330Z,101188.66
2022-12-19T14:58:54.700Z,101177.88
2022-12-19T15:03:37.228Z,101193.97
2022-12-19T15:11:00.746Z,101185.47
2022-12-19T15:14:52.681Z,101178.59
2022-12-19T15:19:22.369Z,101180.44
2022-12-19T15:24:23.215Z,101177.00
2022-12-19T15:29:24.206Z,101196.56
2022-12-19T15:34:40.187Z,101182.94
2022-12-19T15:39:45.756Z,101188.22
2022-12-19T15:44:48.604Z,101195.28
2022-12-19T15:49:50.899Z,101173.88
2022-12-19T15:54:51.857Z,101157.75
2022-12-19T15:59:53.151Z,101157.75
2022-12-19T16:05:03.295Z,101157.63
2022-12-19T16:10:05.779Z,101153.38
2022-12-19T16:15:14.159Z,101151.03
2022-12-19T16:20:19.046Z,101131.44
2022-12-19T16:25:20.347Z,101155.38
2022-12-19T16:30:23.378Z,101137.59
2022-12-19T16:36:02.214Z,101138.41
2022-12-19T16:40:51.238Z,101141.16
2022-12-19T16:45:53.762Z,101142.94
2022-12-19T16:51:02.770Z,101154.03
2022-12-19T16:56:19.352Z,101147.34
2022-12-19T17:01:21.754Z,101141.50
2022-12-19T17:06:25.110Z,101152.44
2022-12-19T17:11:28.252Z,101146.72
2022-12-19T17:16:31.166Z,101149.44
2022-12-19T17:21:33.415Z,101139.19
2022-12-19T17:26:34.259Z,101142.69
2022-12-19T17:31:38.187Z,101135.84
2022-12-19T17:36:40.593Z,101138.44
2022-12-19T17:41:41.408Z,101130.06
2022-12-19T17:46:42.447Z,101147.00
2022-12-19T17:51:48.907Z,101135.16
2022-12-19T17:56:50.090Z,101137.06
2022-12-19T18:01:51.036Z,101123.41
2022-12-19T18:06:53.351Z,101133.84
2022-12-19T18:11:54.349Z,101125.13
2022-12-19T18:16:55.293Z,101121.84
2022-12-19T18:21:57.802Z,101141.38
2022-12-19T18:26:58.604Z,101127.78
2022-12-19T18:32:00.011Z,101116.72
2022-12-19T18:37:04.491Z,101120.09
2022-12-19T18:42:18.415Z,101131.50
2022-12-19T18:47:23.117Z,101139.97
2022-12-19T18:52:25.914Z,101123.72
2022-12-19T18:57:27.867Z,101115.09
2022-12-19T19:02:57.408Z,101109.22
2022-12-19T19:08:06.705Z,101099.97
2022-12-19T19:13:10.335Z,101069.22
2022-12-19T19:18:11.887Z,101092.22
2022-12-19T19:23:14.876Z,101084.66
2022-12-19T19:28:15.723Z,101080.38
2022-12-19T19:33:20.770Z,101080.41
2022-12-19T19:38:24.542Z,101094.09
2022-12-19T19:43:26.924Z,101105.47
2022-12-19T19:48:27.796Z,101107.31
2022-12-19T19:53:29.993Z,101109.84
2022-12-19T19:58:30.977Z,101078.19
2022-12-19T20:03:32.003Z,101077.53
2022-12-19T20:08:39.567Z,101065.69
2022-12-19T20:13:41.584Z,101074.81
2022-12-19T20:18:42.689Z,101080.03
2022-12-19T20:23:45.043Z,101072.41
2022-12-19T20:28:49.547Z,101060.94
2022-12-19T20:33:53.154Z,101051.78
2022-12-19T20:38:55.392Z,101044.78
2022-12-19T20:43:56.214Z,101045.47
2022-12-19T20:48:58.443Z,101047.38
2022-12-19T20:54:00.648Z,101034.44
2022-12-19T20:59:01.573Z,101020.75
2022-12-19T21:04:02.529Z,101024.94
2022-12-19T21:09:05.888Z,101028.00
2022-12-19T21:14:07.920Z,101022.06
2022-12-19T21:19:08.755Z,101012.69
2022-12-19T21:24:11.494Z,101025.50
2022-12-19T21:29:13.618Z,101030.41
2022-12-19T21:34:14.473Z,101049.34
2022-12-19T21:39:17.175Z,101041.75
2022-12-19T21:44:18.271Z,101031.53
2022-12-19T21:49:19.347Z,101035.75
2022-12-19T21:54:21.794Z,101012.63
2022-12-19T21:59:22.714Z,101023.63
2022-12-19T22:04:26.562Z,101027.81
2022-12-19T22:09:28.721Z,101049.78
2022-12-19T22:14:29.735Z,101028.97
2022-12-19T22:19:30.737Z,101019.63
2022-12-19T22:24:33.007Z,101024.72
2022-12-19T22:29:36.650Z,101037.41
2022-12-19T22:34:37.667Z,101044.41
2022-12-19T22:39:39.983Z,101028.09
2022-12-19T22:44:40.824Z,101047.91
2022-12-19T22:49:41.825Z,101046.53
2022-12-19T22:54:44.149Z,101053.25
2022-12-19T22:59:44.986Z,101071.97
2022-12-19T23:04:45.928Z,101063.94
2022-12-19T23:09:48.092Z,101057.94
2022-12-19T23:14:48.872Z,101050.16
2022-12-19T23:19:49.704Z,101057.91
2022-12-19T23:24:52.027Z,101053.44
2022-12-19T23:29:52.851Z,101039.91
2022-12-19T23:34:53.658Z,101049.91
2022-12-19T23:39:55.813Z,101055.84
2022-12-19T23:44:56.646Z,101053.84
2022-12-19T23:49:57.412Z,101052.34
2022-12-19T23:54:59.835Z,101015.59
